createdAt,value
2023-05-14T00:00:50.201Z,8.54
2023-05-14T00:04:06.164Z,8.48
2023-05-14T00:07:08.647Z,8.30
2023-05-14T00:10:11.657Z,8.26
2023-05-14T00:13:14.203Z,8.23
2023-05-14T00:16:17.092Z,8.31
2023-05-14T00:19:19.630Z,8.25
2023-05-14T00:22:22.397Z,8.18
2023-05-14T00:25:24.969Z,8.18
2023-05-14T00:28:27.968Z,8.15
2023-05-14T00:31:30.905Z,8.11
2023-05-14T00:34:35.111Z,7.90
2023-05-14T00:37:37.833Z,7.93
2023-05-14T00:40:44.330Z,7.91
2023-05-14T00:43:46.915Z,7.95
2023-05-14T00:46:50.001Z,7.91
2023-05-14T00:49:52.516Z,7.94
2023-05-14T00:52:55.371Z,7.83
2023-05-14T00:55:59.330Z,7.76
2023-05-14T00:59:02.354Z,7.69
2023-05-14T01:02:04.993Z,7.64
2023-05-14T01:05:08.655Z,7.45
2023-05-14T01:08:26.389Z,7.54
2023-05-14T01:11:38.224Z,7.47
2023-05-14T01:15:05.164Z,7.43
2023-05-14T01:18:11.042Z,7.46
2023-05-14T01:21:28.928Z,7.46
2023-05-14T01:24:31.714Z,7.46
2023-05-14T01:27:43.381Z,7.50
2023-05-14T01:30:54.179Z,7.52
2023-05-14T01:33:58.297Z,7.55
2023-05-14T01:37:01.327Z,7.53
2023-05-14T01:40:04.642Z,7.49
2023-05-14T01:43:08.890Z,7.47
2023-05-14T01:46:12.736Z,7.47
2023-05-14T01:49:18.306Z,7.46
2023-05-14T01:52:21.623Z,7.43
2023-05-14T01:55:24.959Z,7.50
2023-05-14T01:58:27.500Z,7.54
2023-05-14T02:01:30.424Z,7.51
2023-05-14T02:04:33.357Z,7.52
2023-05-14T02:07:36.799Z,7.45
2023-05-14T02:10:39.251Z,7.40
2023-05-14T02:13:42.445Z,7.41
2023-05-14T02:16:45.034Z,7.40
2023-05-14T02:19:48.092Z,7.43
2023-05-14T02:22:51.044Z,7.43
2023-05-14T02:25:53.923Z,7.33
2023-05-14T02:28:56.405Z,7.33
2023-05-14T02:31:59.711Z,7.28
2023-05-14T02:35:02.247Z,7.30
2023-05-14T02:38:05.031Z,7.25
2023-05-14T02:41:07.726Z,7.07
2023-05-14T02:44:10.437Z,7.15
2023-05-14T02:47:12.971Z,7.18
2023-05-14T02:50:15.830Z,7.12
2023-05-14T02:53:18.657Z,7.06
2023-05-14T02:56:21.551Z,7.03
2023-05-14T02:59:25.209Z,7.11
2023-05-14T03:02:29.032Z,7.02
2023-05-14T03:05:32.088Z,6.94
2023-05-14T03:08:34.971Z,6.91
2023-05-14T03:11:37.709Z,6.94
2023-05-14T03:14:40.595Z,6.90
2023-05-14T03:17:44.056Z,6.98
2023-05-14T03:20:47.005Z,6.92
2023-05-14T03:23:49.646Z,6.94
2023-05-14T03:26:54.656Z,6.96
2023-05-14T03:29:57.159Z,7.06
2023-05-14T03:33:00.297Z,7.00
2023-05-14T03:36:02.792Z,6.99
2023-05-14T03:39:09.743Z,7.07
2023-05-14T03:42:12.351Z,7.10
2023-05-14T03:45:15.206Z,7.13
2023-05-14T03:48:17.684Z,7.18
2023-05-14T03:51:20.542Z,7.20
2023-05-14T03:54:23.154Z,7.20
2023-05-14T03:57:26.047Z,7.20
2023-05-14T04:00:29.249Z,7.26
2023-05-14T04:03:32.322Z,7.36
2023-05-14T04:06:35.019Z,7.46
2023-05-14T04:09:38.100Z,7.42
2023-05-14T04:12:40.556Z,7.45
2023-05-14T04:15:44.900Z,7.51
2023-05-14T04:18:47.464Z,7.52
2023-05-14T04:21:51.132Z,7.57
2023-05-14T04:24:53.887Z,7.59
2023-05-14T04:27:56.751Z,7.66
2023-05-14T04:30:59.997Z,7.75
2023-05-14T04:34:03.074Z,7.88
2023-05-14T04:37:05.676Z,7.98
2023-05-14T04:40:11.473Z,8.05
2023-05-14T04:43:13.956Z,8.20
2023-05-14T04:46:16.991Z,8.34
2023-05-14T04:49:19.684Z,8.45
2023-05-14T04:52:22.486Z,8.58
2023-05-14T04:55:25.976Z,8.61
2023-05-14T04:58:29.424Z,8.82
2023-05-14T05:01:31.897Z,8.97
2023-05-14T05:04:34.610Z,9.07
2023-05-14T05:07:38.070Z,9.27
2023-05-14T05:10:41.119Z,9.46
2023-05-14T05:13:43.948Z,9.62
2023-05-14T05:16:47.355Z,9.80
2023-05-14T05:19:49.856Z,9.94
2023-05-14T05:22:52.769Z,10.11
2023-05-14T05:25:55.325Z,10.42
2023-05-14T05:28:58.218Z,10.68
2023-05-14T05:32:00.907Z,10.91
2023-05-14T05:35:04.007Z,11.06
2023-05-14T05:38:06.489Z,11.23
2023-05-14T05:41:09.284Z,11.52
2023-05-14T05:44:11.808Z,11.77
2023-05-14T05:47:17.276Z,12.02
2023-05-14T05:50:20.139Z,12.44
2023-05-14T05:53:23.148Z,12.86
2023-05-14T05:56:25.709Z,13.25
2023-05-14T05:59:28.530Z,13.71
2023-05-14T06:02:31.072Z,14.29
2023-05-14T06:05:33.959Z,14.78
2023-05-14T06:08:36.640Z,15.41
2023-05-14T06:11:39.444Z,15.80
2023-05-14T06:14:42.002Z,16.22
2023-05-14T06:17:47.595Z,16.71
2023-05-14T06:20:50.289Z,17.17
2023-05-14T06:23:54.109Z,17.62
2023-05-14T06:26:56.735Z,17.97
2023-05-14T06:29:59.521Z,18.17
2023-05-14T06:33:02.351Z,18.56
2023-05-14T06:36:08.217Z,18.93
2023-05-14T06:39:13.465Z,19.39
2023-05-14T06:42:18.679Z,19.86
2023-05-14T06:45:21.131Z,20.03
2023-05-14T06:48:24.271Z,20.32
2023-05-14T06:51:28.309Z,20.81
2023-05-14T06:54:31.439Z,21.13
2023-05-14T06:57:34.939Z,21.59
2023-05-14T07:00:37.832Z,22.06
2023-05-14T07:03:40.390Z,22.21
2023-05-14T07:06:43.205Z,22.43
2023-05-14T07:09:45.660Z,22.41
2023-05-14T07:12:48.994Z,22.54
2023-05-14T07:15:51.688Z,22.91
2023-05-14T07:18:54.671Z,23.12
2023-05-14T07:21:59.148Z,23.09
2023-05-14T07:25:03.663Z,23.08
2023-05-14T07:28:07.624Z,23.32
2023-05-14T07:31:10.805Z,23.75
2023-05-14T07:34:13.434Z,24.18
2023-05-14T07:37:16.407Z,24.21
2023-05-14T07:40:19.112Z,24.16
2023-05-14T07:43:21.910Z,24.20
2023-05-14T07:46:25.957Z,24.22
2023-05-14T07:49:28.717Z,24.57
2023-05-14T07:52:31.290Z,25.01
2023-05-14T07:55:34.196Z,24.86
2023-05-14T07:58:36.639Z,24.42
2023-05-14T08:01:39.712Z,24.69
2023-05-14T08:04:42.619Z,24.85
2023-05-14T08:07:45.452Z,24.91
2023-05-14T08:10:47.997Z,25.11
2023-05-14T08:13:50.923Z,25.29
2023-05-14T08:16:53.822Z,25.56
2023-05-14T08:19:56.841Z,25.92
2023-05-14T08:22:59.443Z,25.98
2023-05-14T08:26:02.480Z,26.34
2023-05-14T08:29:05.651Z,25.99
2023-05-14T08:32:22.020Z,26.32
2023-05-14T08:35:26.217Z,26.02
2023-05-14T08:38:29.092Z,25.97
2023-05-14T08:41:32.334Z,26.07
2023-05-14T08:45:21.650Z,26.29
2023-05-14T08:48:27.666Z,26.35
2023-05-14T08:51:30.591Z,26.06
2023-05-14T08:54:33.319Z,25.86
2023-05-14T08:57:35.905Z,26.06
2023-05-14T09:00:39.139Z,26.40
2023-05-14T09:03:41.751Z,26.42
2023-05-14T09:06:45.288Z,26.36
2023-05-14T09:09:48.114Z,26.58
2023-05-14T09:12:51.836Z,26.41
2023-05-14T09:15:55.102Z,26.30
2023-05-14T09:18:58.669Z,26.44
2023-05-14T09:22:01.335Z,26.20
2023-05-14T09:25:06.517Z,26.78
2023-05-14T09:28:09.514Z,26.87
2023-05-14T09:31:12.289Z,27.31
2023-05-14T09:34:24.766Z,27.19
2023-05-14T09:37:28.918Z,26.85
2023-05-14T09:40:32.838Z,26.98
2023-05-14T09:43:35.600Z,26.81
2023-05-14T09:46:38.063Z,27.10
2023-05-14T09:49:40.767Z,27.23
2023-05-14T09:52:43.445Z,27.20
2023-05-14T09:55:46.527Z,27.20
2023-05-14T09:58:49.020Z,27.11
2023-05-14T10:01:52.789Z,27.00
2023-05-14T10:04:59.027Z,26.87
2023-05-14T10:08:05.822Z,26.93
2023-05-14T10:11:21.238Z,26.53
2023-05-14T10:14:27.527Z,25.95
2023-05-14T10:17:32.741Z,26.18
2023-05-14T10:20:38.024Z,26.43
2023-05-14T10:23:41.175Z,26.53
2023-05-14T10:26:44.811Z,26.41
2023-05-14T10:29:54.796Z,26.53
2023-05-14T10:33:12.701Z,26.60
2023-05-14T10:36:15.485Z,26.47
2023-05-14T10:39:18.178Z,26.67
2023-05-14T10:42:26.119Z,26.43
2023-05-14T10:45:30.484Z,27.05
2023-05-14T10:48:34.479Z,27.20
2023-05-14T10:51:37.231Z,27.27
2023-05-14T10:54:39.865Z,27.65
2023-05-14T10:57:44.010Z,27.70
2023-05-14T11:00:48.313Z,27.35
2023-05-14T11:03:53.620Z,27.43
2023-05-14T11:06:56.864Z,27.72
2023-05-14T11:10:20.299Z,27.94
2023-05-14T11:13:23.165Z,27.73
2023-05-14T11:16:31.041Z,27.28
2023-05-14T11:19:33.517Z,27.33
2023-05-14T11:22:39.079Z,27.72
2023-05-14T11:25:41.941Z,27.97
2023-05-14T11:28:44.831Z,27.53
2023-05-14T11:31:47.391Z,27.81
2023-05-14T11:34:50.213Z,27.30
2023-05-14T11:37:53.214Z,27.20
2023-05-14T11:40:57.224Z,27.58
2023-05-14T11:43:59.637Z,27.36
2023-05-14T11:47:02.690Z,27.72
2023-05-14T11:50:06.321Z,27.75
2023-05-14T11:53:10.722Z,27.79
2023-05-14T11:56:13.177Z,28.11
2023-05-14T11:59:17.702Z,28.00
2023-05-14T12:02:20.201Z,27.84
2023-05-14T12:05:22.990Z,27.48
2023-05-14T12:08:32.593Z,27.83
2023-05-14T12:11:37.112Z,27.81
2023-05-14T12:14:41.944Z,27.55
2023-05-14T12:17:51.008Z,27.67
2023-05-14T12:20:53.528Z,28.07
2023-05-14T12:24:02.725Z,27.87
2023-05-14T12:27:05.846Z,27.87
2023-05-14T12:33:15.288Z,27.00
2023-05-14T12:36:21.913Z,27.25
2023-05-14T12:39:25.294Z,27.25
2023-05-14T12:42:27.953Z,27.46
2023-05-14T12:45:30.921Z,27.75
2023-05-14T12:48:33.577Z,27.64
2023-05-14T12:51:36.176Z,27.48
2023-05-14T12:54:43.655Z,27.00
2023-05-14T12:57:46.165Z,26.78
2023-05-14T13:00:48.848Z,27.05
2023-05-14T13:03:51.475Z,27.00
2023-05-14T13:06:54.386Z,26.41
2023-05-14T13:09:58.188Z,26.07
2023-05-14T13:13:02.240Z,25.78
2023-05-14T13:16:04.928Z,25.43
2023-05-14T13:19:07.773Z,25.03
2023-05-14T13:22:10.110Z,24.77
2023-05-14T13:25:13.636Z,24.67
2023-05-14T13:28:16.151Z,24.65
2023-05-14T13:31:19.168Z,24.66
2023-05-14T13:34:21.751Z,24.62
2023-05-14T13:37:26.775Z,24.43
2023-05-14T13:40:30.670Z,24.66
2023-05-14T13:43:34.887Z,25.01
2023-05-14T13:46:37.829Z,25.08
2023-05-14T13:49:40.923Z,25.38
2023-05-14T13:52:43.409Z,25.48
2023-05-14T13:55:47.876Z,25.43
2023-05-14T13:58:51.758Z,25.67
2023-05-14T14:01:54.683Z,25.67
2023-05-14T14:04:57.500Z,25.91
2023-05-14T14:08:04.584Z,25.96
2023-05-14T14:11:22.972Z,25.75
2023-05-14T14:14:25.753Z,25.86
2023-05-14T14:17:28.268Z,25.90
2023-05-14T14:20:31.573Z,25.70
2023-05-14T14:23:34.087Z,25.75
2023-05-14T14:26:36.982Z,26.02
2023-05-14T14:29:39.725Z,26.30
2023-05-14T14:32:45.324Z,25.96
2023-05-14T14:35:48.041Z,25.91
2023-05-14T14:38:52.225Z,26.00
2023-05-14T14:41:55.304Z,25.98
2023-05-14T14:44:58.248Z,25.90
2023-05-14T14:48:25.686Z,25.67
2023-05-14T14:51:28.539Z,25.57
2023-05-14T14:54:31.163Z,25.32
2023-05-14T14:57:34.062Z,25.31
2023-05-14T15:00:36.542Z,25.23
2023-05-14T15:03:39.443Z,25.19
2023-05-14T15:06:41.864Z,24.86
2023-05-14T15:09:44.941Z,24.51
2023-05-14T15:12:47.342Z,24.38
2023-05-14T15:15:50.939Z,24.22
2023-05-14T15:18:57.212Z,24.11
2023-05-14T15:22:02.493Z,24.14
2023-05-14T15:25:06.800Z,24.16
2023-05-14T15:28:09.680Z,24.18
2023-05-14T15:31:13.807Z,24.21
2023-05-14T15:34:16.794Z,24.08
2023-05-14T15:37:19.452Z,24.03
2023-05-14T15:40:22.490Z,24.11
2023-05-14T15:43:25.164Z,24.17
2023-05-14T15:46:34.101Z,24.20
2023-05-14T15:49:38.111Z,24.08
2023-05-14T15:52:51.157Z,24.14
2023-05-14T15:55:53.790Z,24.13
2023-05-14T15:58:56.760Z,24.07
2023-05-14T16:01:59.838Z,23.82
2023-05-14T16:05:02.703Z,23.62
2023-05-14T16:08:05.303Z,23.59
2023-05-14T16:11:08.284Z,23.54
2023-05-14T16:14:10.799Z,23.50
2023-05-14T16:17:13.486Z,23.43
2023-05-14T16:20:17.087Z,23.40
2023-05-14T16:23:19.893Z,23.46
2023-05-14T16:26:24.742Z,23.39
2023-05-14T16:29:27.878Z,23.50
2023-05-14T16:32:30.301Z,23.39
2023-05-14T16:35:33.921Z,23.36
2023-05-14T16:38:41.503Z,23.35
2023-05-14T16:41:51.235Z,23.32
2023-05-14T16:44:53.731Z,23.33
2023-05-14T16:47:56.570Z,23.14
2023-05-14T16:50:59.813Z,23.19
2023-05-14T16:54:02.584Z,23.23
2023-05-14T16:57:06.184Z,23.18
2023-05-14T17:00:09.667Z,23.17
2023-05-14T17:03:12.246Z,23.12
2023-05-14T17:06:15.255Z,23.11
2023-05-14T17:09:17.980Z,23.11
2023-05-14T17:12:20.975Z,22.75
2023-05-14T17:15:24.159Z,22.55
2023-05-14T17:18:27.001Z,22.43
2023-05-14T17:21:29.914Z,22.14
2023-05-14T17:24:32.772Z,22.18
2023-05-14T17:27:36.404Z,22.06
2023-05-14T17:30:39.195Z,22.06
2023-05-14T17:33:42.043Z,22.02
2023-05-14T17:36:44.662Z,21.84
2023-05-14T17:39:47.448Z,21.71
2023-05-14T17:42:49.784Z,21.67
2023-05-14T17:45:54.362Z,21.68
2023-05-14T17:48:58.569Z,21.43
2023-05-14T17:52:02.234Z,21.22
2023-05-14T17:55:05.034Z,21.23
2023-05-14T17:58:08.288Z,21.14
2023-05-14T18:01:11.118Z,20.94
2023-05-14T18:04:15.524Z,20.93
2023-05-14T18:07:19.367Z,20.81
2023-05-14T18:10:22.040Z,20.72
2023-05-14T18:13:24.898Z,20.63
2023-05-14T18:16:28.010Z,20.59
2023-05-14T18:19:30.742Z,20.48
2023-05-14T18:22:33.661Z,20.30
2023-05-14T18:25:36.622Z,20.11
2023-05-14T18:28:39.524Z,19.99
2023-05-14T18:31:42.013Z,19.97
2023-05-14T18:34:44.812Z,19.78
2023-05-14T18:37:48.022Z,19.73
2023-05-14T18:40:51.376Z,19.57
2023-05-14T18:43:54.026Z,19.39
2023-05-14T18:46:57.031Z,19.22
2023-05-14T18:50:00.582Z,19.06
2023-05-14T18:53:05.236Z,18.90
2023-05-14T18:56:10.108Z,18.74
2023-05-14T18:59:14.223Z,18.60
2023-05-14T19:02:17.072Z,18.47
2023-05-14T19:05:20.576Z,18.39
2023-05-14T19:11:43.893Z,18.17
2023-05-14T19:14:46.654Z,18.05
2023-05-14T19:17:55.210Z,17.85
2023-05-14T19:20:57.974Z,17.78
2023-05-14T19:24:01.358Z,17.69
2023-05-14T19:27:05.000Z,17.58
2023-05-14T19:30:08.634Z,17.50
2023-05-14T19:33:11.228Z,17.39
2023-05-14T19:36:14.785Z,17.25
2023-05-14T19:39:17.045Z,17.15
2023-05-14T19:42:19.733Z,17.12
2023-05-14T19:45:23.518Z,17.01
2023-05-14T19:48:27.153Z,16.91
2023-05-14T19:51:30.224Z,16.79
2023-05-14T19:54:33.813Z,16.72
2023-05-14T19:57:39.002Z,16.63
2023-05-14T20:00:42.678Z,16.55
2023-05-14T20:03:46.596Z,16.40
2023-05-14T20:06:49.987Z,16.21
2023-05-14T20:09:53.585Z,16.14
2023-05-14T20:12:56.557Z,16.12
2023-05-14T20:15:59.578Z,16.04
2023-05-14T20:19:02.320Z,15.96
2023-05-14T20:22:05.769Z,15.97
2023-05-14T20:25:09.465Z,15.91
2023-05-14T20:28:12.228Z,15.80
2023-05-14T20:31:15.084Z,15.72
2023-05-14T20:34:17.577Z,15.67
2023-05-14T20:37:20.526Z,15.70
2023-05-14T20:40:23.735Z,15.67
2023-05-14T20:43:29.727Z,15.55
2023-05-14T20:46:32.578Z,15.50
2023-05-14T20:49:35.299Z,15.40
2023-05-14T20:52:38.026Z,15.29
2023-05-14T20:55:41.492Z,15.23
2023-05-14T20:58:43.964Z,15.17
2023-05-14T21:01:46.885Z,15.15
2023-05-14T21:04:49.244Z,15.12
2023-05-14T21:07:52.063Z,15.04
2023-05-14T21:10:54.563Z,15.00
2023-05-14T21:13:58.000Z,14.96
2023-05-14T21:17:00.393Z,14.91
2023-05-14T21:20:03.218Z,14.88
2023-05-14T21:23:05.923Z,14.81
2023-05-14T21:26:08.672Z,14.82
2023-05-14T21:29:11.683Z,14.75
2023-05-14T21:32:14.328Z,14.72
2023-05-14T21:35:16.790Z,14.72
2023-05-14T21:38:19.984Z,14.63
2023-05-14T21:41:22.630Z,14.60
2023-05-14T21:44:25.387Z,14.60
2023-05-14T21:47:27.988Z,14.62
2023-05-14T21:50:30.999Z,14.68
2023-05-14T21:53:33.496Z,14.71
2023-05-14T21:56:37.347Z,14.74
2023-05-14T21:59:39.759Z,14.71
2023-05-14T22:02:42.471Z,14.66
2023-05-14T22:05:44.998Z,14.69
2023-05-14T22:08:47.793Z,14.63
2023-05-14T22:11:50.340Z,14.62
2023-05-14T22:14:53.157Z,14.59
2023-05-14T22:17:56.169Z,14.54
2023-05-14T22:20:59.085Z,14.56
2023-05-14T22:24:01.452Z,14.50
2023-05-14T22:27:04.479Z,14.50
2023-05-14T22:30:07.712Z,14.47
2023-05-14T22:33:10.523Z,14.48
2023-05-14T22:36:13.062Z,14.49
2023-05-14T22:39:15.821Z,14.55
2023-05-14T22:42:20.492Z,14.55
2023-05-14T22:45:23.686Z,14.55
2023-05-14T22:48:26.276Z,14.60
2023-05-14T22:51:28.940Z,14.60
2023-05-14T22:54:31.281Z,14.63
2023-05-14T22:57:34.800Z,14.54
2023-05-14T23:00:37.336Z,14.59
2023-05-14T23:03:39.979Z,14.58
2023-05-14T23:06:42.817Z,14.70
2023-05-14T23:09:45.783Z,14.73
2023-05-14T23:12:48.268Z,14.80
2023-05-14T23:15:51.197Z,14.77
2023-05-14T23:18:53.831Z,14.84
2023-05-14T23:21:58.527Z,14.86
2023-05-14T23:25:01.235Z,14.88
2023-05-14T23:28:03.990Z,14.88
2023-05-14T23:31:08.452Z,14.90
2023-05-14T23:34:11.304Z,14.88
2023-05-14T23:37:13.857Z,14.94
2023-05-14T23:40:17.087Z,15.03
2023-05-14T23:43:19.385Z,15.01
2023-05-14T23:46:22.539Z,14.97
2023-05-14T23:49:24.922Z,14.93
2023-05-14T23:52:27.614Z,14.98
2023-05-14T23:55:29.915Z,14.93
2023-05-14T23:58:33.557Z,14.94
